< < Back
Terminal Aerodrome Forecast


Current Version              Previous Versions:   1  2  3  4  5  6  7  8  9  

Terminal Aerodrome Forecast

634
FTUS42 KCAE 011700
TAFAGS
TAF
KAGS 011725Z 0118/0218 VRB05KT P6SM SCT050
     FM020200 VRB03KT P6SM SCT250
     FM020700 00000KT 4SM BR FEW250
      TEMPO 0207/0211 1SM BR SCT002
     FM021200 VRB03KT P6SM SCT250=

Latest METAR

189
SAUS70 KWBC 011900 RRQ
MTRAGS
METAR KAGS 011853Z 17007KT 10SM SCT045 36/19 A3005 RMK AO2 SLP175
T03610194


USA.gov is the U.S. government's official web portal to all federal, state and local government web resources and services.